createdAt,value
2022-08-08T00:00:54.452Z,17.35
2022-08-08T00:05:44.211Z,17.31
2022-08-08T00:11:13.135Z,17.26
2022-08-08T00:16:24.500Z,17.16
2022-08-08T00:21:43.807Z,17.17
2022-08-08T00:26:51.844Z,17.09
2022-08-08T00:32:28.905Z,17.02
2022-08-08T00:37:48.057Z,16.94
2022-08-08T00:43:29.696Z,16.92
2022-08-08T00:49:22.829Z,16.83
2022-08-08T00:54:45.753Z,16.76
2022-08-08T01:00:11.063Z,16.70
2022-08-08T01:05:59.213Z,16.65
2022-08-08T01:11:37.630Z,16.57
2022-08-08T01:17:15.146Z,16.52
2022-08-08T01:23:04.245Z,16.48
2022-08-08T01:28:27.986Z,16.46
2022-08-08T01:34:01.566Z,16.43
2022-08-08T01:39:24.245Z,16.39
2022-08-08T01:44:50.670Z,16.38
2022-08-08T01:50:19.860Z,16.34
2022-08-08T01:56:27.257Z,16.30
2022-08-08T02:01:17.293Z,16.21
2022-08-08T02:11:59.415Z,16.65
2022-08-08T02:17:03.295Z,16.65
2022-08-08T02:22:45.881Z,16.02
2022-08-08T02:28:05.062Z,15.95
2022-08-08T02:33:41.629Z,15.92
2022-08-08T02:39:41.786Z,15.89
2022-08-08T02:45:09.757Z,15.85
2022-08-08T02:51:00.227Z,15.80
2022-08-08T02:56:45.319Z,15.78
2022-08-08T03:02:32.593Z,15.67
2022-08-08T03:08:12.557Z,15.62
2022-08-08T03:15:58.110Z,15.50
2022-08-08T03:19:29.931Z,15.50
2022-08-08T03:24:35.084Z,15.43
2022-08-08T03:29:55.289Z,15.37
2022-08-08T03:35:00.723Z,15.26
2022-08-08T03:40:11.027Z,15.23
2022-08-08T03:46:05.821Z,15.18
2022-08-08T03:50:55.955Z,15.14
2022-08-08T03:56:04.654Z,15.11
2022-08-08T04:01:23.649Z,15.08
2022-08-08T04:06:30.937Z,15.05
2022-08-08T04:11:48.600Z,15.01
2022-08-08T04:17:07.086Z,15.02
2022-08-08T04:22:24.221Z,14.94
2022-08-08T04:28:03.423Z,14.92
2022-08-08T04:32:54.252Z,14.93
2022-08-08T04:37:59.043Z,14.89
2022-08-08T04:43:05.684Z,14.88
2022-08-08T04:48:14.940Z,14.89
2022-08-08T04:54:36.554Z,14.89
2022-08-08T04:58:48.313Z,14.92
2022-08-08T05:04:11.008Z,14.92
2022-08-08T05:09:16.448Z,14.94
2022-08-08T05:14:22.310Z,14.99
2022-08-08T05:20:12.407Z,15.02
2022-08-08T05:24:53.807Z,15.03
2022-08-08T05:29:59.260Z,15.18
2022-08-08T05:35:05.644Z,15.21
2022-08-08T05:40:12.044Z,15.22
2022-08-08T05:45:25.492Z,15.32
2022-08-08T05:50:39.009Z,15.45
2022-08-08T05:56:07.703Z,15.51
2022-08-08T06:01:14.364Z,15.53
2022-08-08T06:06:41.311Z,15.62
2022-08-08T06:11:54.105Z,15.72
2022-08-08T06:17:02.511Z,15.76
2022-08-08T06:22:33.706Z,15.92
2022-08-08T06:27:46.159Z,16.00
2022-08-08T06:32:57.920Z,16.12
2022-08-08T06:38:09.263Z,16.28
2022-08-08T06:43:30.630Z,16.42
2022-08-08T06:48:40.298Z,16.60
2022-08-08T06:53:51.371Z,16.79
2022-08-08T06:59:00.768Z,16.95
2022-08-08T07:04:36.924Z,17.11
2022-08-08T07:09:45.475Z,17.22
2022-08-08T07:15:05.951Z,17.34
2022-08-08T07:20:18.475Z,17.48
2022-08-08T07:25:31.904Z,17.59
2022-08-08T07:30:37.223Z,17.69
2022-08-08T07:35:44.948Z,17.86
2022-08-08T07:40:58.810Z,17.95
2022-08-08T07:46:17.645Z,18.07
2022-08-08T07:51:45.483Z,18.27
2022-08-08T07:57:16.946Z,18.46
2022-08-08T08:02:36.389Z,18.58
2022-08-08T08:07:45.881Z,18.74
2022-08-08T08:12:54.607Z,18.91
2022-08-08T08:18:00.009Z,19.09
2022-08-08T08:23:06.535Z,19.19
2022-08-08T08:28:10.635Z,19.31
2022-08-08T08:33:21.416Z,19.47
2022-08-08T08:38:29.004Z,19.72
2022-08-08T08:43:35.631Z,19.97
2022-08-08T08:48:49.645Z,20.11
2022-08-08T08:53:59.716Z,20.28
2022-08-08T08:59:06.587Z,20.48
2022-08-08T09:04:31.092Z,20.67
2022-08-08T09:09:47.614Z,20.88
2022-08-08T09:14:56.284Z,21.02
2022-08-08T09:22:01.799Z,21.19
2022-08-08T09:25:35.549Z,21.25
2022-08-08T09:30:44.871Z,21.43
2022-08-08T09:35:53.650Z,21.66
2022-08-08T09:41:07.079Z,21.88
2022-08-08T09:46:16.786Z,22.32
2022-08-08T09:52:01.483Z,22.55
2022-08-08T09:57:03.599Z,22.44
2022-08-08T10:02:14.447Z,22.28
2022-08-08T10:07:20.287Z,22.34
2022-08-08T10:12:37.764Z,22.83
2022-08-08T10:18:04.027Z,23.52
2022-08-08T10:23:13.379Z,24.57
2022-08-08T10:28:26.401Z,24.96
2022-08-08T10:33:38.573Z,25.02
2022-08-08T10:39:05.126Z,25.93
2022-08-08T10:44:13.297Z,25.54
2022-08-08T10:49:59.958Z,24.81
2022-08-08T10:54:53.506Z,24.38
2022-08-08T11:00:00.224Z,24.08
2022-08-08T11:05:15.002Z,23.88
2022-08-08T11:10:28.725Z,25.03
2022-08-08T11:15:36.058Z,25.27
2022-08-08T11:20:57.891Z,25.05
2022-08-08T11:26:05.301Z,25.89
2022-08-08T11:31:16.571Z,26.96
2022-08-08T11:36:21.363Z,26.49
2022-08-08T11:41:28.194Z,26.09
2022-08-08T11:46:37.984Z,25.67
2022-08-08T11:51:49.796Z,26.54
2022-08-08T11:56:57.785Z,27.40
2022-08-08T12:02:31.160Z,28.91
2022-08-08T12:07:31.984Z,28.85
2022-08-08T12:12:46.156Z,28.28
2022-08-08T12:17:53.907Z,28.40
2022-08-08T12:22:58.191Z,29.87
2022-08-08T12:28:15.582Z,29.39
2022-08-08T12:33:37.677Z,28.30
2022-08-08T12:38:55.608Z,27.78
2022-08-08T12:44:06.016Z,27.22
2022-08-08T12:49:25.160Z,27.16
2022-08-08T12:54:36.545Z,27.14
2022-08-08T13:00:04.972Z,27.43
2022-08-08T13:05:26.665Z,28.43
2022-08-08T13:10:55.569Z,29.74
2022-08-08T13:16:19.752Z,29.47
2022-08-08T13:21:26.930Z,29.04
2022-08-08T13:26:49.208Z,28.48
2022-08-08T13:31:53.734Z,28.75
2022-08-08T13:36:58.864Z,30.08
2022-08-08T13:42:03.705Z,31.51
2022-08-08T13:47:08.202Z,31.84
2022-08-08T13:52:35.975Z,30.50
2022-08-08T13:58:06.884Z,30.86
2022-08-08T14:03:26.669Z,32.41
2022-08-08T14:08:34.725Z,33.27
2022-08-08T14:13:59.587Z,33.48
2022-08-08T14:19:10.831Z,31.90
2022-08-08T14:24:31.348Z,31.08
2022-08-08T14:29:40.254Z,31.82
2022-08-08T14:34:45.427Z,31.24
2022-08-08T14:39:53.949Z,31.21
2022-08-08T14:45:11.167Z,32.52
2022-08-08T14:50:37.687Z,33.51
2022-08-08T14:55:43.393Z,34.15
2022-08-08T15:00:49.101Z,33.80
2022-08-08T15:05:55.410Z,32.57
2022-08-08T15:11:06.346Z,31.66
2022-08-08T15:16:12.161Z,32.69
2022-08-08T15:21:18.499Z,33.67
2022-08-08T15:26:25.877Z,34.24
2022-08-08T15:32:17.540Z,32.83
2022-08-08T15:36:56.844Z,32.02
2022-08-08T15:42:02.205Z,31.27
2022-08-08T15:47:15.962Z,31.61
2022-08-08T15:52:24.839Z,32.09
2022-08-08T15:57:35.575Z,32.86
2022-08-08T16:02:50.310Z,33.42
2022-08-08T16:07:56.022Z,33.19
2022-08-08T16:13:28.124Z,33.69
2022-08-08T16:18:25.347Z,33.54
2022-08-08T16:23:32.160Z,33.76
2022-08-08T16:28:38.574Z,32.55
2022-08-08T16:33:58.287Z,31.64
2022-08-08T16:39:09.780Z,30.85
2022-08-08T16:44:27.893Z,30.44
2022-08-08T16:49:38.715Z,29.71
2022-08-08T16:55:03.842Z,29.69
2022-08-08T17:00:09.998Z,29.97
2022-08-08T17:05:14.134Z,29.67
2022-08-08T17:10:19.509Z,29.24
2022-08-08T17:15:24.883Z,28.97
2022-08-08T17:20:39.903Z,28.75
2022-08-08T17:25:53.505Z,28.42
2022-08-08T17:30:59.137Z,28.14
2022-08-08T17:36:10.166Z,27.91
2022-08-08T17:41:16.287Z,27.56
2022-08-08T17:46:38.810Z,27.12
2022-08-08T17:51:43.703Z,26.75
2022-08-08T17:56:55.503Z,26.57
2022-08-08T18:02:04.005Z,26.14
2022-08-08T18:08:02.979Z,26.07
2022-08-08T18:12:33.473Z,25.91
2022-08-08T18:18:09.061Z,25.72
2022-08-08T18:23:03.551Z,25.53
2022-08-08T18:28:13.459Z,25.32
2022-08-08T18:33:19.922Z,25.16
2022-08-08T18:38:43.297Z,24.98
2022-08-08T18:43:52.835Z,24.85
2022-08-08T18:48:58.086Z,24.66
2022-08-08T18:54:05.749Z,24.52
2022-08-08T18:59:17.557Z,24.48
2022-08-08T19:04:22.743Z,24.28
2022-08-08T19:09:49.658Z,24.16
2022-08-08T19:14:56.067Z,24.01
2022-08-08T19:20:02.953Z,23.97
2022-08-08T19:26:02.516Z,23.91
2022-08-08T19:30:38.512Z,23.74
2022-08-08T19:36:08.396Z,23.61
2022-08-08T19:41:12.888Z,23.40
2022-08-08T19:46:24.949Z,23.21
2022-08-08T19:51:41.428Z,23.13
2022-08-08T19:56:48.847Z,23.04
2022-08-08T20:02:03.073Z,22.86
2022-08-08T20:08:28.870Z,22.73
2022-08-08T20:12:36.983Z,22.58
2022-08-08T20:17:41.884Z,22.46
2022-08-08T20:22:48.932Z,22.35
2022-08-08T20:28:02.153Z,22.25
2022-08-08T20:33:18.678Z,22.09
2022-08-08T20:38:19.307Z,21.99
2022-08-08T20:43:44.139Z,21.91
2022-08-08T20:48:55.534Z,21.66
2022-08-08T20:54:14.453Z,21.64
2022-08-08T20:59:27.475Z,21.57
2022-08-08T21:04:32.381Z,21.49
2022-08-08T21:10:02.276Z,21.40
2022-08-08T21:15:06.516Z,21.34
2022-08-08T21:20:11.893Z,21.27
2022-08-08T21:25:17.278Z,21.11
2022-08-08T21:30:22.177Z,20.98
2022-08-08T21:36:14.097Z,20.88
2022-08-08T21:40:57.110Z,20.86
2022-08-08T21:48:01.299Z,20.77
2022-08-08T21:54:17.694Z,20.72
2022-08-08T21:56:51.188Z,20.67
2022-08-08T22:01:55.889Z,20.57
2022-08-08T22:07:01.828Z,20.47
2022-08-08T22:12:10.012Z,20.39
2022-08-08T22:17:21.804Z,20.25
2022-08-08T22:22:29.104Z,20.19
2022-08-08T22:28:01.091Z,20.04
2022-08-08T22:32:59.726Z,20.05
2022-08-08T22:38:03.674Z,19.98
2022-08-08T22:43:08.907Z,19.92
2022-08-08T22:48:14.129Z,19.79
2022-08-08T22:54:32.496Z,19.78
2022-08-08T22:58:42.959Z,19.75
2022-08-08T23:03:54.366Z,19.65
2022-08-08T23:09:00.274Z,19.53
2022-08-08T23:14:11.611Z,19.53
2022-08-08T23:19:15.706Z,19.47
2022-08-08T23:24:22.979Z,19.39
2022-08-08T23:29:29.673Z,19.33
2022-08-08T23:34:34.016Z,19.26
2022-08-08T23:39:41.778Z,19.16
2022-08-08T23:44:54.405Z,19.09
2022-08-08T23:50:03.318Z,18.99
2022-08-08T23:55:14.081Z,18.95
